Terminal Aerodrome Forecast
Issued by NWS

Home | Current Version | Previous Version | Text Only | Print | Product List | Glossary Off
Versions: 1 2 3 4 5 6 7 8 9 10 11 12 13

000
FTUS43 KLSX 242300
TAFCPS
TAF
KCPS 242337Z 2500/2524 15012G17KT P6SM BKN035
     FM250500 13010KT P6SM VCSH OVC020
     FM250900 14008KT P6SM -SHRA VCTS OVC009CB
     FM251500 17012KT P6SM BKN020
     FM251900 20012KT P6SM VCTS BKN035CB
     FM252100 25013KT P6SM BKN025=

USA.gov is the U.S. government's official web portal to all federal, state and local government web resources and services.